createdAt,value
2018-10-07T00:01:26.307Z,16.01
2018-10-07T00:02:26.366Z,16.00
2018-10-07T00:04:19.365Z,15.88
2018-10-07T00:05:19.417Z,15.88
2018-10-07T00:07:12.407Z,15.94
2018-10-07T00:08:12.467Z,15.91
2018-10-07T00:10:05.463Z,15.92
2018-10-07T00:11:05.513Z,15.95
2018-10-07T00:12:58.501Z,16.08
2018-10-07T00:13:58.567Z,16.10
2018-10-07T00:15:51.559Z,16.15
2018-10-07T00:16:51.780Z,16.12
2018-10-07T00:18:44.599Z,16.10
2018-10-07T00:19:44.660Z,16.05
2018-10-07T00:21:37.661Z,16.10
2018-10-07T00:22:37.714Z,16.17
2018-10-07T00:24:30.723Z,16.15
2018-10-07T00:25:30.763Z,16.17
2018-10-07T00:27:23.759Z,16.13
2018-10-07T00:28:23.823Z,16.13
2018-10-07T00:30:16.817Z,16.17
2018-10-07T00:31:16.873Z,16.09
2018-10-07T00:33:09.864Z,16.16
2018-10-07T00:34:09.922Z,16.16
2018-10-07T00:36:02.918Z,16.09
2018-10-07T00:37:02.977Z,16.13
2018-10-07T00:38:55.968Z,16.21
2018-10-07T00:39:56.021Z,16.10
2018-10-07T00:41:49.019Z,16.17
2018-10-07T00:42:49.074Z,16.02
2018-10-07T00:44:42.089Z,16.12
2018-10-07T00:45:42.193Z,16.01
2018-10-07T00:47:35.145Z,16.05
2018-10-07T00:48:35.197Z,16.05
2018-10-07T00:50:28.192Z,16.05
2018-10-07T00:51:28.248Z,16.01
2018-10-07T00:53:21.243Z,16.01
2018-10-07T00:54:21.305Z,16.00
2018-10-07T00:56:14.301Z,15.98
2018-10-07T00:57:14.355Z,15.98
2018-10-07T00:59:07.349Z,16.02
2018-10-07T01:00:07.406Z,16.01
2018-10-07T01:02:00.403Z,16.04
2018-10-07T01:03:00.457Z,16.08
2018-10-07T01:04:53.444Z,16.13
2018-10-07T01:05:53.507Z,16.04
2018-10-07T01:07:46.501Z,16.05
2018-10-07T01:08:46.553Z,16.00
2018-10-07T01:10:39.542Z,16.15
2018-10-07T01:11:39.602Z,16.20
2018-10-07T01:13:32.602Z,16.08
2018-10-07T01:14:32.656Z,16.00
2018-10-07T01:16:25.658Z,16.04
2018-10-07T01:17:25.714Z,16.02
2018-10-07T01:19:18.709Z,16.13
2018-10-07T01:20:18.768Z,16.02
2018-10-07T01:22:11.765Z,16.01
2018-10-07T01:23:11.817Z,16.04
2018-10-07T01:25:04.808Z,16.04
2018-10-07T01:26:04.867Z,16.04
2018-10-07T01:27:57.866Z,16.08
2018-10-07T01:28:57.920Z,16.04
2018-10-07T01:30:50.907Z,15.98
2018-10-07T01:31:50.968Z,16.04
2018-10-07T01:33:44.474Z,16.00
2018-10-07T01:34:44.529Z,16.04
2018-10-07T01:36:37.529Z,16.04
2018-10-07T01:37:37.587Z,15.98
2018-10-07T01:39:30.581Z,15.97
2018-10-07T01:40:30.635Z,15.91
2018-10-07T01:42:23.629Z,15.97
2018-10-07T01:43:23.682Z,15.92
2018-10-07T01:45:16.735Z,15.92
2018-10-07T01:46:16.797Z,15.82
2018-10-07T01:48:09.794Z,15.92
2018-10-07T01:49:09.844Z,15.79
2018-10-07T01:51:02.835Z,15.75
2018-10-07T01:52:02.897Z,15.79
2018-10-07T01:53:55.893Z,15.75
2018-10-07T01:54:55.945Z,15.68
2018-10-07T01:56:48.934Z,15.65
2018-10-07T01:57:48.995Z,15.61
2018-10-07T01:59:41.984Z,15.61
2018-10-07T02:00:42.040Z,15.59
2018-10-07T02:02:35.037Z,15.59
2018-10-07T02:03:35.094Z,15.57
2018-10-07T02:05:28.080Z,15.47
2018-10-07T02:06:28.142Z,15.36
2018-10-07T02:08:21.233Z,15.22
2018-10-07T02:09:21.208Z,15.25
2018-10-07T02:11:14.189Z,15.10
2018-10-07T02:12:14.250Z,15.14
2018-10-07T02:14:07.246Z,15.09
2018-10-07T02:15:07.305Z,15.03
2018-10-07T02:17:00.282Z,15.04
2018-10-07T02:18:00.343Z,14.99
2018-10-07T02:19:53.339Z,14.91
2018-10-07T02:20:53.389Z,14.88
2018-10-07T02:22:46.377Z,14.85
2018-10-07T02:23:46.440Z,14.78
2018-10-07T02:25:39.433Z,14.72
2018-10-07T02:26:39.485Z,14.72
2018-10-07T02:28:32.489Z,14.73
2018-10-07T02:29:32.551Z,14.70
2018-10-07T02:31:25.539Z,14.62
2018-10-07T02:32:25.598Z,14.66
2018-10-07T02:34:20.101Z,14.63
2018-10-07T02:35:20.157Z,14.63
2018-10-07T02:37:13.147Z,14.58
2018-10-07T02:38:13.210Z,14.58
2018-10-07T02:40:06.208Z,14.47
2018-10-07T02:41:06.264Z,14.48
2018-10-07T02:42:59.253Z,14.41
2018-10-07T02:43:59.315Z,14.41
2018-10-07T02:45:52.308Z,14.32
2018-10-07T02:46:52.362Z,14.28
2018-10-07T02:48:45.348Z,14.22
2018-10-07T02:49:45.407Z,14.22
2018-10-07T02:51:38.401Z,14.20
2018-10-07T02:52:38.454Z,14.26
2018-10-07T02:54:31.444Z,14.17
2018-10-07T02:55:31.499Z,14.14
2018-10-07T02:57:24.492Z,14.05
2018-10-07T02:58:24.552Z,14.03
2018-10-07T03:00:17.591Z,14.07
2018-10-07T03:01:17.598Z,14.00
2018-10-07T03:03:10.588Z,13.97
2018-10-07T03:04:10.649Z,13.92
2018-10-07T03:06:03.646Z,13.92
2018-10-07T03:07:03.698Z,13.87
2018-10-07T03:08:56.685Z,13.78
2018-10-07T03:09:56.743Z,13.79
2018-10-07T03:11:49.745Z,13.71
2018-10-07T03:12:49.793Z,13.75
2018-10-07T03:14:42.803Z,13.65
2018-10-07T03:15:42.841Z,13.62
2018-10-07T03:17:35.830Z,13.62
2018-10-07T03:18:35.892Z,13.57
2018-10-07T03:20:28.887Z,13.52
2018-10-07T03:21:29.184Z,13.37
2018-10-07T03:23:21.924Z,13.44
2018-10-07T03:24:21.986Z,13.47
2018-10-07T03:26:14.979Z,13.50
2018-10-07T03:27:15.030Z,13.44
2018-10-07T03:29:08.024Z,13.37
2018-10-07T03:30:08.083Z,13.30
2018-10-07T03:32:01.078Z,13.15
2018-10-07T03:33:01.130Z,13.23
2018-10-07T03:34:54.124Z,13.11
2018-10-07T03:35:54.180Z,13.23
2018-10-07T03:37:47.180Z,12.97
2018-10-07T03:38:47.225Z,12.98
2018-10-07T03:40:40.219Z,12.93
2018-10-07T03:41:40.273Z,12.82
2018-10-07T03:43:33.269Z,12.86
2018-10-07T03:44:33.321Z,12.83
2018-10-07T03:46:26.312Z,12.90
2018-10-07T03:47:26.365Z,12.86
2018-10-07T03:49:19.351Z,12.86
2018-10-07T03:50:19.409Z,12.83
2018-10-07T03:52:12.412Z,12.87
2018-10-07T03:53:12.462Z,12.83
2018-10-07T03:55:05.447Z,12.79
2018-10-07T03:56:05.510Z,12.75
2018-10-07T03:57:58.502Z,12.82
2018-10-07T03:58:58.554Z,12.70
2018-10-07T04:00:51.539Z,12.67
2018-10-07T04:01:51.596Z,12.62
2018-10-07T04:03:44.590Z,12.64
2018-10-07T04:04:44.642Z,12.64
2018-10-07T04:06:37.634Z,12.65
2018-10-07T04:07:37.686Z,12.62
2018-10-07T04:09:30.679Z,12.67
2018-10-07T04:10:30.739Z,12.64
2018-10-07T04:12:23.733Z,12.65
2018-10-07T04:13:23.782Z,12.58
2018-10-07T04:15:16.772Z,12.49
2018-10-07T04:16:16.830Z,12.55
2018-10-07T04:18:09.825Z,12.49
2018-10-07T04:19:09.878Z,12.57
2018-10-07T04:21:02.860Z,12.49
2018-10-07T04:22:02.920Z,12.40
2018-10-07T04:23:55.913Z,12.36
2018-10-07T04:24:55.964Z,12.25
2018-10-07T04:26:48.944Z,12.37
2018-10-07T04:27:49.009Z,12.27
2018-10-07T04:29:42.003Z,12.29
2018-10-07T04:30:42.049Z,12.25
2018-10-07T04:32:35.044Z,12.29
2018-10-07T04:33:35.095Z,12.27
2018-10-07T04:35:28.084Z,12.29
2018-10-07T04:36:28.146Z,12.28
2018-10-07T04:38:21.139Z,12.32
2018-10-07T04:39:21.199Z,12.32
2018-10-07T04:41:14.176Z,12.24
2018-10-07T04:42:14.236Z,12.27
2018-10-07T04:44:07.236Z,12.27
2018-10-07T04:45:07.292Z,12.24
2018-10-07T04:47:00.275Z,12.24
2018-10-07T04:48:00.332Z,12.17
2018-10-07T04:49:53.325Z,12.27
2018-10-07T04:50:53.377Z,12.18
2018-10-07T04:52:46.359Z,12.06
2018-10-07T04:53:46.421Z,12.13
2018-10-07T04:55:39.925Z,12.07
2018-10-07T04:56:40.000Z,12.09
2018-10-07T04:58:32.964Z,12.10
2018-10-07T04:59:33.014Z,12.13
2018-10-07T05:01:25.998Z,12.09
2018-10-07T05:02:26.057Z,12.09
2018-10-07T05:04:19.052Z,12.02
2018-10-07T05:05:19.107Z,12.03
2018-10-07T05:07:12.099Z,12.03
2018-10-07T05:08:12.159Z,11.97
2018-10-07T05:10:05.149Z,11.88
2018-10-07T05:11:05.205Z,11.91
2018-10-07T05:12:58.198Z,11.83
2018-10-07T05:13:58.256Z,11.80
2018-10-07T05:15:51.274Z,11.80
2018-10-07T05:16:51.301Z,11.73
2018-10-07T05:18:44.294Z,11.75
2018-10-07T05:19:44.341Z,11.70
2018-10-07T05:21:37.336Z,11.69
2018-10-07T05:22:37.393Z,11.69
2018-10-07T05:24:30.385Z,11.70
2018-10-07T05:25:30.438Z,11.60
2018-10-07T05:27:23.441Z,11.59
2018-10-07T05:28:23.501Z,11.54
2018-10-07T05:30:16.486Z,11.48
2018-10-07T05:31:16.546Z,11.44
2018-10-07T05:33:09.539Z,11.50
2018-10-07T05:34:09.584Z,11.43
2018-10-07T05:36:02.573Z,11.44
2018-10-07T05:37:02.628Z,11.40
2018-10-07T05:38:55.611Z,11.41
2018-10-07T05:39:55.671Z,11.37
2018-10-07T05:41:48.669Z,11.29
2018-10-07T05:42:48.718Z,11.41
2018-10-07T05:44:41.727Z,11.29
2018-10-07T05:45:41.760Z,11.40
2018-10-07T05:47:34.739Z,11.41
2018-10-07T05:48:34.797Z,11.33
2018-10-07T05:50:27.846Z,11.19
2018-10-07T05:51:27.848Z,11.29
2018-10-07T05:53:20.828Z,11.19
2018-10-07T05:54:20.896Z,11.37
2018-10-07T05:56:14.398Z,11.19
2018-10-07T05:57:14.452Z,11.30
2018-10-07T05:59:07.444Z,11.27
2018-10-07T06:00:07.505Z,11.26
2018-10-07T06:02:00.561Z,11.22
2018-10-07T06:03:00.554Z,11.22
2018-10-07T06:04:53.539Z,11.26
2018-10-07T06:05:53.594Z,11.18
2018-10-07T06:07:46.586Z,11.19
2018-10-07T06:08:46.636Z,11.32
2018-10-07T06:10:39.641Z,11.35
2018-10-07T06:11:39.736Z,11.29
2018-10-07T06:13:32.664Z,11.41
2018-10-07T06:14:32.724Z,11.47
2018-10-07T06:16:25.722Z,11.51
2018-10-07T06:17:25.776Z,11.57
2018-10-07T06:19:18.760Z,11.62
2018-10-07T06:20:18.822Z,11.65
2018-10-07T06:22:11.821Z,11.68
2018-10-07T06:23:11.874Z,11.80
2018-10-07T06:25:04.862Z,11.77
2018-10-07T06:26:04.921Z,11.72
2018-10-07T06:27:57.921Z,11.86
2018-10-07T06:28:57.976Z,11.87
2018-10-07T06:30:50.960Z,11.87
2018-10-07T06:31:51.018Z,11.88
2018-10-07T06:33:44.006Z,11.91
2018-10-07T06:34:44.060Z,11.95
2018-10-07T06:36:37.052Z,11.91
2018-10-07T06:37:37.105Z,11.90
2018-10-07T06:39:30.087Z,11.90
2018-10-07T06:40:30.143Z,11.91
2018-10-07T06:42:23.138Z,11.94
2018-10-07T06:43:23.197Z,11.94
2018-10-07T06:45:16.205Z,11.90
2018-10-07T06:46:16.233Z,11.94
2018-10-07T06:48:09.229Z,11.84
2018-10-07T06:49:09.286Z,11.94
2018-10-07T06:51:02.268Z,11.73
2018-10-07T06:52:02.327Z,11.73
2018-10-07T06:53:55.319Z,11.80
2018-10-07T06:54:55.369Z,11.80
2018-10-07T06:56:48.365Z,11.86
2018-10-07T06:57:48.421Z,11.75
2018-10-07T06:59:41.438Z,11.81
2018-10-07T07:00:41.461Z,11.90
2018-10-07T07:02:34.459Z,11.73
2018-10-07T07:03:34.511Z,11.70
2018-10-07T07:05:27.493Z,11.80
2018-10-07T07:06:27.574Z,11.87
2018-10-07T07:08:20.546Z,11.81
2018-10-07T07:09:20.596Z,11.88
2018-10-07T07:11:13.579Z,11.83
2018-10-07T07:12:13.645Z,11.88
2018-10-07T07:14:06.636Z,11.95
2018-10-07T07:15:06.690Z,11.94
2018-10-07T07:16:59.672Z,11.91
2018-10-07T07:17:59.731Z,11.91
2018-10-07T07:19:52.759Z,11.91
2018-10-07T07:20:52.774Z,11.86
2018-10-07T07:22:45.758Z,11.81
2018-10-07T07:23:45.818Z,11.73
2018-10-07T07:25:38.810Z,11.72
2018-10-07T07:26:38.860Z,11.81
2018-10-07T07:28:31.856Z,11.68
2018-10-07T07:29:31.909Z,11.70
2018-10-07T07:31:24.941Z,11.91
2018-10-07T07:32:24.951Z,12.42
2018-10-07T07:34:18.021Z,12.73
2018-10-07T07:35:17.994Z,12.54
2018-10-07T07:37:10.988Z,12.31
2018-10-07T07:38:11.044Z,12.27
2018-10-07T07:40:04.042Z,12.24
2018-10-07T07:41:04.088Z,12.07
2018-10-07T07:42:57.074Z,12.67
2018-10-07T07:43:57.133Z,12.55
2018-10-07T07:45:50.125Z,14.68
2018-10-07T07:46:50.192Z,15.68
2018-10-07T07:48:43.169Z,16.94
2018-10-07T07:49:43.222Z,17.20
2018-10-07T07:51:36.219Z,18.19
2018-10-07T07:52:36.271Z,18.43
2018-10-07T07:54:29.264Z,18.70
2018-10-07T07:55:29.324Z,18.65
2018-10-07T07:57:22.308Z,19.62
2018-10-07T07:58:22.371Z,19.82
2018-10-07T08:00:15.366Z,19.59
2018-10-07T08:01:15.424Z,19.84
2018-10-07T08:03:08.414Z,20.36
2018-10-07T08:04:08.479Z,20.48
2018-10-07T08:06:01.475Z,20.58
2018-10-07T08:07:01.530Z,20.96
2018-10-07T08:08:54.601Z,19.92
2018-10-07T08:09:54.585Z,19.52
2018-10-07T08:11:47.583Z,20.25
2018-10-07T08:12:47.638Z,20.88
2018-10-07T08:14:40.646Z,20.63
2018-10-07T08:15:40.696Z,20.88
2018-10-07T08:17:33.792Z,20.07
2018-10-07T08:18:33.757Z,20.25
2018-10-07T08:20:26.755Z,19.92
2018-10-07T08:21:26.810Z,19.39
2018-10-07T08:23:19.834Z,19.54
2018-10-07T08:24:19.870Z,19.76
2018-10-07T08:26:12.869Z,20.02
2018-10-07T08:27:12.924Z,20.39
2018-10-07T08:29:05.919Z,21.20
2018-10-07T08:30:05.985Z,21.43
2018-10-07T08:31:58.983Z,21.20
2018-10-07T08:32:59.040Z,20.69
2018-10-07T08:34:52.040Z,20.82
2018-10-07T08:35:52.105Z,20.95
2018-10-07T08:37:45.104Z,20.85
2018-10-07T08:38:45.168Z,20.75
2018-10-07T08:40:38.164Z,20.87
2018-10-07T08:41:38.225Z,20.48
2018-10-07T08:43:31.222Z,19.81
2018-10-07T08:44:31.286Z,19.22
2018-10-07T08:46:24.295Z,18.28
2018-10-07T08:47:24.352Z,17.76
2018-10-07T08:49:17.351Z,17.14
2018-10-07T08:50:17.411Z,16.64
2018-10-07T08:52:10.417Z,15.79
2018-10-07T08:53:10.476Z,15.67
2018-10-07T08:55:03.476Z,15.47
2018-10-07T08:56:03.601Z,15.25
2018-10-07T08:57:56.530Z,15.14
2018-10-07T08:58:56.589Z,15.10
2018-10-07T09:00:49.599Z,15.25
2018-10-07T09:01:49.648Z,15.21
2018-10-07T09:03:42.652Z,15.14
2018-10-07T09:04:42.725Z,15.10
2018-10-07T09:06:35.803Z,15.04
2018-10-07T09:07:35.786Z,14.97
2018-10-07T09:09:28.794Z,14.92
2018-10-07T09:10:28.828Z,14.89
2018-10-07T09:12:21.865Z,14.92
2018-10-07T09:13:21.903Z,14.84
2018-10-07T09:15:14.894Z,14.82
2018-10-07T09:16:14.932Z,14.79
2018-10-07T09:18:07.982Z,14.86
2018-10-07T09:19:07.995Z,14.86
2018-10-07T09:21:00.997Z,14.65
2018-10-07T09:22:01.052Z,14.66
2018-10-07T09:23:54.551Z,14.70
2018-10-07T09:24:54.622Z,14.77
2018-10-07T09:26:47.688Z,14.85
2018-10-07T09:27:47.654Z,14.79
2018-10-07T09:29:40.641Z,14.77
2018-10-07T09:30:40.704Z,14.73
2018-10-07T09:32:33.768Z,14.78
2018-10-07T09:33:33.751Z,14.79
2018-10-07T09:35:26.746Z,14.73
2018-10-07T09:36:26.808Z,14.79
2018-10-07T09:38:19.816Z,14.92
2018-10-07T09:39:19.960Z,14.92
2018-10-07T09:41:12.862Z,15.00
2018-10-07T09:42:12.924Z,15.07
2018-10-07T09:44:05.931Z,15.03
2018-10-07T09:45:05.985Z,14.88
2018-10-07T09:46:58.986Z,14.82
2018-10-07T09:47:59.032Z,14.82
2018-10-07T09:49:52.030Z,14.86
2018-10-07T09:50:52.079Z,14.96
2018-10-07T09:52:45.079Z,15.11
2018-10-07T09:53:45.126Z,15.10
2018-10-07T09:55:38.111Z,15.25
2018-10-07T09:56:38.173Z,15.24
2018-10-07T09:58:31.166Z,15.14
2018-10-07T09:59:31.221Z,15.09
2018-10-07T10:01:24.237Z,15.25
2018-10-07T10:02:24.265Z,15.09
2018-10-07T10:04:17.388Z,15.04
2018-10-07T10:05:17.323Z,15.02
2018-10-07T10:07:10.357Z,15.06
2018-10-07T10:08:10.366Z,15.07
2018-10-07T10:10:03.358Z,15.27
2018-10-07T10:11:03.487Z,15.15
2018-10-07T10:12:56.412Z,15.36
2018-10-07T10:13:56.470Z,15.25
2018-10-07T10:15:49.462Z,15.10
2018-10-07T10:16:49.511Z,15.11
2018-10-07T10:18:42.509Z,15.04
2018-10-07T10:19:42.626Z,14.99
2018-10-07T10:21:35.552Z,15.00
2018-10-07T10:22:35.609Z,15.02
2018-10-07T10:24:29.108Z,15.06
2018-10-07T10:25:29.164Z,15.03
2018-10-07T10:27:22.156Z,15.25
2018-10-07T10:28:22.219Z,15.27
2018-10-07T10:30:15.215Z,15.37
2018-10-07T10:31:15.269Z,15.42
2018-10-07T10:33:08.295Z,15.24
2018-10-07T10:34:08.433Z,15.36
2018-10-07T10:36:01.532Z,15.17
2018-10-07T10:37:01.588Z,15.11
2018-10-07T10:38:54.583Z,15.14
2018-10-07T10:39:54.672Z,15.25
2018-10-07T10:41:47.640Z,15.57
2018-10-07T10:42:47.703Z,15.58
2018-10-07T10:44:40.698Z,15.54
2018-10-07T10:45:40.748Z,15.52
2018-10-07T10:47:33.870Z,15.65
2018-10-07T10:48:33.797Z,15.59
2018-10-07T10:50:26.786Z,15.59
2018-10-07T10:51:26.841Z,15.57
2018-10-07T10:53:19.829Z,15.42
2018-10-07T10:54:19.903Z,15.40
2018-10-07T10:56:12.893Z,15.57
2018-10-07T10:57:12.975Z,15.52
2018-10-07T10:59:05.926Z,15.42
2018-10-07T11:00:06.036Z,15.39
2018-10-07T11:01:59.567Z,15.46
2018-10-07T11:02:59.061Z,15.40
2018-10-07T11:04:52.053Z,15.55
2018-10-07T11:05:52.110Z,15.52
2018-10-07T11:07:45.142Z,15.62
2018-10-07T11:08:45.201Z,15.70
2018-10-07T11:10:38.313Z,15.68
2018-10-07T11:11:38.245Z,15.65
2018-10-07T11:13:31.244Z,15.64
2018-10-07T11:14:31.304Z,15.70
2018-10-07T11:16:24.306Z,15.80
2018-10-07T11:17:24.354Z,15.76
2018-10-07T11:19:17.394Z,15.98
2018-10-07T11:20:17.399Z,15.92
2018-10-07T11:22:10.393Z,15.86
2018-10-07T11:23:10.444Z,15.91
2018-10-07T11:25:03.448Z,15.94
2018-10-07T11:26:03.508Z,15.97
2018-10-07T11:27:56.484Z,15.86
2018-10-07T11:28:56.546Z,15.83
2018-10-07T11:30:49.541Z,15.92
2018-10-07T11:31:49.598Z,15.84
2018-10-07T11:33:42.589Z,15.92
2018-10-07T11:34:42.697Z,16.01
2018-10-07T11:36:35.643Z,15.98
2018-10-07T11:37:35.703Z,15.90
2018-10-07T11:39:28.686Z,16.00
2018-10-07T11:40:28.742Z,16.13
2018-10-07T11:42:21.741Z,16.20
2018-10-07T11:43:21.793Z,16.15
2018-10-07T11:45:14.777Z,16.23
2018-10-07T11:46:14.839Z,16.17
2018-10-07T11:48:07.833Z,16.13
2018-10-07T11:49:07.892Z,16.21
2018-10-07T11:51:00.891Z,16.04
2018-10-07T11:52:00.945Z,15.97
2018-10-07T11:53:53.945Z,15.95
2018-10-07T11:54:54.007Z,15.92
2018-10-07T11:56:47.007Z,15.94
2018-10-07T11:57:47.062Z,15.88
2018-10-07T11:59:40.057Z,15.79
2018-10-07T12:00:40.118Z,15.79
2018-10-07T12:02:33.166Z,15.79
2018-10-07T12:03:33.191Z,15.77
2018-10-07T12:05:26.154Z,15.82
2018-10-07T12:06:26.213Z,15.77
2018-10-07T12:08:19.207Z,15.77
2018-10-07T12:09:19.261Z,15.91
2018-10-07T12:11:12.248Z,15.95
2018-10-07T12:12:12.309Z,15.95
2018-10-07T12:14:05.306Z,16.04
2018-10-07T12:15:05.357Z,16.12
2018-10-07T12:16:58.366Z,16.31
2018-10-07T12:17:58.412Z,16.15
2018-10-07T12:19:51.407Z,16.04
2018-10-07T12:20:51.461Z,16.08
2018-10-07T12:22:44.456Z,16.04
2018-10-07T12:23:44.510Z,16.00
2018-10-07T12:25:37.504Z,16.21
2018-10-07T12:26:37.561Z,16.21
2018-10-07T12:28:30.562Z,16.21
2018-10-07T12:29:30.614Z,16.23
2018-10-07T12:31:23.605Z,16.15
2018-10-07T12:32:23.666Z,16.15
2018-10-07T12:34:16.661Z,16.17
2018-10-07T12:35:16.716Z,16.26
2018-10-07T12:37:09.703Z,16.39
2018-10-07T12:38:09.765Z,16.53
2018-10-07T12:40:02.764Z,16.36
2018-10-07T12:41:02.811Z,16.36
2018-10-07T12:42:55.810Z,16.35
2018-10-07T12:43:55.861Z,16.35
2018-10-07T12:45:48.859Z,16.32
2018-10-07T12:46:48.915Z,16.28
2018-10-07T12:48:41.911Z,16.28
2018-10-07T12:49:41.966Z,16.36
2018-10-07T12:51:34.950Z,16.26
2018-10-07T12:52:35.015Z,16.36
2018-10-07T12:54:28.026Z,16.31
2018-10-07T12:55:28.065Z,16.26
2018-10-07T12:57:21.049Z,16.33
2018-10-07T12:58:21.110Z,16.42
2018-10-07T13:00:14.100Z,16.39
2018-10-07T13:01:14.157Z,16.51
2018-10-07T13:03:07.148Z,16.50
2018-10-07T13:04:07.204Z,16.54
2018-10-07T13:06:00.193Z,16.61
2018-10-07T13:07:00.255Z,16.61
2018-10-07T13:08:53.247Z,16.61
2018-10-07T13:09:53.300Z,16.64
2018-10-07T13:11:46.311Z,16.39
2018-10-07T13:12:46.352Z,16.35
2018-10-07T13:14:39.858Z,16.38
2018-10-07T13:15:39.908Z,16.39
2018-10-07T13:17:32.903Z,16.53
2018-10-07T13:18:32.959Z,16.64
2018-10-07T13:20:25.954Z,16.60
2018-10-07T13:21:26.015Z,16.71
2018-10-07T13:23:19.005Z,16.64
2018-10-07T13:24:19.067Z,16.57
2018-10-07T13:26:12.061Z,16.51
2018-10-07T13:27:12.115Z,16.57
2018-10-07T13:29:05.112Z,16.71
2018-10-07T13:30:05.166Z,16.79
2018-10-07T13:31:58.161Z,16.72
2018-10-07T13:32:58.216Z,16.68
2018-10-07T13:34:51.225Z,16.61
2018-10-07T13:35:51.281Z,16.51
2018-10-07T13:37:44.273Z,16.53
2018-10-07T13:38:44.335Z,16.56
2018-10-07T13:40:37.329Z,16.66
2018-10-07T13:41:37.386Z,16.75
2018-10-07T13:43:30.383Z,16.75
2018-10-07T13:44:30.443Z,16.75
2018-10-07T13:46:23.439Z,16.64
2018-10-07T13:47:23.490Z,16.61
2018-10-07T13:49:16.479Z,16.46
2018-10-07T13:50:16.539Z,16.42
2018-10-07T13:52:09.536Z,16.35
2018-10-07T13:53:09.610Z,16.32
2018-10-07T13:55:02.587Z,16.41
2018-10-07T13:56:02.641Z,16.41
2018-10-07T13:57:55.633Z,16.46
2018-10-07T13:58:55.690Z,16.60
2018-10-07T14:00:48.688Z,16.78
2018-10-07T14:01:48.743Z,17.14
2018-10-07T14:03:41.741Z,17.36
2018-10-07T14:04:41.800Z,17.60
2018-10-07T14:06:34.808Z,17.70
2018-10-07T14:07:34.866Z,17.98
2018-10-07T14:09:27.861Z,18.08
2018-10-07T14:10:27.920Z,18.41
2018-10-07T14:12:20.921Z,18.53
2018-10-07T14:13:20.977Z,18.71
2018-10-07T14:15:14.480Z,18.81
2018-10-07T14:16:14.538Z,18.90
2018-10-07T14:18:07.535Z,18.45
2018-10-07T14:19:07.590Z,18.18
2018-10-07T14:21:00.586Z,17.64
2018-10-07T14:22:00.640Z,17.45
2018-10-07T14:23:53.676Z,17.09
2018-10-07T14:24:53.696Z,17.02
2018-10-07T14:26:46.701Z,16.96
2018-10-07T14:27:46.756Z,16.91
2018-10-07T14:29:39.746Z,16.81
2018-10-07T14:30:39.817Z,16.74
2018-10-07T14:32:32.812Z,16.72
2018-10-07T14:33:32.868Z,16.75
2018-10-07T14:35:25.865Z,16.66
2018-10-07T14:36:25.934Z,16.64
2018-10-07T14:38:18.930Z,16.71
2018-10-07T14:39:18.987Z,16.60
2018-10-07T14:41:11.987Z,16.60
2018-10-07T14:42:12.036Z,16.56
2018-10-07T14:44:05.025Z,16.51
2018-10-07T14:45:05.090Z,16.54
2018-10-07T14:46:58.089Z,16.54
2018-10-07T14:47:58.144Z,16.50
2018-10-07T14:49:51.133Z,16.36
2018-10-07T14:50:51.196Z,16.38
2018-10-07T14:52:44.196Z,16.29
2018-10-07T14:53:44.255Z,16.32
2018-10-07T14:55:37.242Z,16.20
2018-10-07T14:56:37.304Z,16.20
2018-10-07T14:58:30.298Z,16.28
2018-10-07T14:59:30.355Z,16.21
2018-10-07T15:01:23.349Z,16.24
2018-10-07T15:02:23.408Z,16.28
2018-10-07T15:04:16.404Z,16.20
2018-10-07T15:05:16.461Z,16.31
2018-10-07T15:07:09.465Z,16.13
2018-10-07T15:08:09.510Z,16.20
2018-10-07T15:10:02.528Z,16.13
2018-10-07T15:11:02.570Z,16.10
2018-10-07T15:12:55.567Z,16.00
2018-10-07T15:13:55.625Z,15.97
2018-10-07T15:15:48.613Z,15.91
2018-10-07T15:16:48.677Z,15.88
2018-10-07T15:18:41.671Z,15.73
2018-10-07T15:19:41.724Z,15.88
2018-10-07T15:21:34.713Z,15.77
2018-10-07T15:22:34.774Z,15.84
2018-10-07T15:24:27.775Z,15.79
2018-10-07T15:25:27.832Z,15.79
2018-10-07T15:27:20.827Z,15.70
2018-10-07T15:28:20.886Z,15.68
2018-10-07T15:30:13.883Z,15.65
2018-10-07T15:31:13.935Z,15.64
2018-10-07T15:33:06.929Z,15.57
2018-10-07T15:34:06.981Z,15.55
2018-10-07T15:35:59.966Z,15.51
2018-10-07T15:37:00.026Z,15.57
2018-10-07T15:38:53.028Z,15.59
2018-10-07T15:39:53.082Z,15.43
2018-10-07T15:41:46.071Z,15.46
2018-10-07T15:42:46.137Z,15.44
2018-10-07T15:44:39.126Z,15.43
2018-10-07T15:45:39.182Z,15.44
2018-10-07T15:47:32.173Z,15.40
2018-10-07T15:48:32.228Z,15.37
2018-10-07T15:50:25.224Z,15.47
2018-10-07T15:51:25.279Z,15.42
2018-10-07T15:53:18.266Z,15.49
2018-10-07T15:54:18.327Z,15.35
2018-10-07T15:56:11.318Z,15.33
2018-10-07T15:57:11.373Z,15.24
2018-10-07T15:59:04.374Z,15.27
2018-10-07T16:00:04.420Z,15.21
2018-10-07T16:01:57.405Z,15.17
2018-10-07T16:02:57.467Z,15.10
2018-10-07T16:04:50.463Z,15.19
2018-10-07T16:05:50.519Z,15.07
2018-10-07T16:07:43.503Z,15.06
2018-10-07T16:08:43.628Z,15.00
2018-10-07T16:10:36.559Z,14.91
2018-10-07T16:11:36.614Z,15.00
2018-10-07T16:13:29.608Z,14.89
2018-10-07T16:14:29.674Z,14.88
2018-10-07T16:16:22.678Z,14.85
2018-10-07T16:17:22.725Z,14.69
2018-10-07T16:19:15.731Z,14.66
2018-10-07T16:20:15.781Z,14.78
2018-10-07T16:22:08.779Z,14.60
2018-10-07T16:23:08.835Z,14.59
2018-10-07T16:25:01.841Z,14.66
2018-10-07T16:26:01.927Z,14.51
2018-10-07T16:27:54.881Z,14.45
2018-10-07T16:28:54.944Z,14.45
2018-10-07T16:30:47.937Z,14.45
2018-10-07T16:31:47.994Z,14.41
2018-10-07T16:33:41.025Z,14.40
2018-10-07T16:34:41.046Z,14.45
2018-10-07T16:36:34.034Z,14.33
2018-10-07T16:37:34.087Z,14.26
2018-10-07T16:39:27.077Z,14.12
2018-10-07T16:40:27.139Z,14.15
2018-10-07T16:42:20.134Z,14.07
2018-10-07T16:43:20.187Z,14.05
2018-10-07T16:45:13.222Z,14.10
2018-10-07T16:46:13.231Z,14.08
2018-10-07T16:48:06.224Z,13.96
2018-10-07T16:49:06.272Z,13.87
2018-10-07T16:50:59.275Z,13.83
2018-10-07T16:51:59.324Z,13.81
2018-10-07T16:53:52.309Z,13.72
2018-10-07T16:54:52.372Z,13.75
2018-10-07T16:56:45.367Z,13.67
2018-10-07T16:57:45.415Z,13.68
2018-10-07T16:59:38.403Z,13.59
2018-10-07T17:00:38.468Z,13.54
2018-10-07T17:02:31.457Z,13.53
2018-10-07T17:03:31.515Z,13.38
2018-10-07T17:05:24.498Z,13.49
2018-10-07T17:06:24.562Z,13.44
2018-10-07T17:08:17.553Z,13.39
2018-10-07T17:09:17.605Z,13.30
2018-10-07T17:11:10.589Z,13.33
2018-10-07T17:12:10.649Z,13.25
2018-10-07T17:14:03.643Z,13.23
2018-10-07T17:15:03.699Z,13.16
2018-10-07T17:16:56.692Z,13.11
2018-10-07T17:17:56.741Z,13.13
2018-10-07T17:19:49.731Z,13.05
2018-10-07T17:20:49.833Z,13.15
2018-10-07T17:22:42.785Z,13.16
2018-10-07T17:23:42.841Z,13.00
2018-10-07T17:25:35.828Z,12.94
2018-10-07T17:26:35.889Z,13.00
2018-10-07T17:28:28.883Z,12.94
2018-10-07T17:29:28.935Z,13.03
2018-10-07T17:31:21.923Z,12.98
2018-10-07T17:32:21.980Z,12.95
2018-10-07T17:34:14.977Z,12.83
2018-10-07T17:35:15.058Z,12.90
2018-10-07T17:37:08.018Z,12.90
2018-10-07T17:38:08.115Z,12.87
2018-10-07T17:40:01.072Z,12.79
2018-10-07T17:41:01.124Z,12.79
2018-10-07T17:42:54.139Z,12.70
2018-10-07T17:43:54.177Z,12.64
2018-10-07T17:45:47.163Z,12.58
2018-10-07T17:46:47.222Z,12.65
2018-10-07T17:48:40.287Z,12.68
2018-10-07T17:49:40.269Z,12.67
2018-10-07T17:51:33.259Z,12.65
2018-10-07T17:52:33.310Z,12.62
2018-10-07T17:54:26.306Z,12.65
2018-10-07T17:55:26.360Z,12.65
2018-10-07T17:57:19.347Z,12.50
2018-10-07T17:58:19.410Z,12.53
2018-10-07T18:00:12.401Z,12.49
2018-10-07T18:01:12.452Z,12.53
2018-10-07T18:03:05.442Z,12.50
2018-10-07T18:04:05.500Z,12.54
2018-10-07T18:05:58.494Z,12.42
2018-10-07T18:06:58.549Z,12.42
2018-10-07T18:08:51.546Z,12.39
2018-10-07T18:09:51.599Z,12.37
2018-10-07T18:11:44.579Z,12.27
2018-10-07T18:12:44.639Z,12.28
2018-10-07T18:14:39.129Z,12.24
2018-10-07T18:15:39.183Z,12.20
2018-10-07T18:17:32.168Z,12.17
2018-10-07T18:18:32.228Z,12.09
2018-10-07T18:20:25.220Z,12.09
2018-10-07T18:21:25.276Z,12.07
2018-10-07T18:23:18.255Z,11.91
2018-10-07T18:24:18.315Z,11.95
2018-10-07T18:26:11.307Z,12.07
2018-10-07T18:27:11.360Z,11.90
2018-10-07T18:29:04.344Z,11.91
2018-10-07T18:30:04.404Z,11.83
2018-10-07T18:31:57.393Z,11.80
2018-10-07T18:32:57.450Z,11.73
2018-10-07T18:34:50.444Z,11.70